createdAt,value
2023-04-11T00:00:04.983Z,0.00
2023-04-11T00:01:04.960Z,0.00
2023-04-11T00:02:05.120Z,0.00
2023-04-11T00:03:05.063Z,0.00
2023-04-11T00:04:05.068Z,0.00
2023-04-11T00:05:05.050Z,0.00
2023-04-11T00:06:04.950Z,0.00
2023-04-11T00:07:04.960Z,0.00
2023-04-11T00:08:05.002Z,0.00
2023-04-11T00:09:04.960Z,0.00
2023-04-11T00:10:04.946Z,0.00
2023-04-11T00:11:04.950Z,0.00
2023-04-11T00:12:04.957Z,0.00
2023-04-11T00:13:04.953Z,0.00
2023-04-11T00:14:04.944Z,0.00
2023-04-11T00:15:04.946Z,0.00
2023-04-11T00:16:04.994Z,0.00
2023-04-11T00:17:04.942Z,0.00
2023-04-11T00:18:04.938Z,0.00
2023-04-11T00:19:04.940Z,0.00
2023-04-11T00:20:04.937Z,0.00
2023-04-11T00:21:04.943Z,0.00
2023-04-11T00:22:04.935Z,0.00
2023-04-11T00:23:04.933Z,0.00
2023-04-11T00:24:04.928Z,0.00
2023-04-11T00:25:04.933Z,0.00
2023-04-11T00:26:04.925Z,0.00
2023-04-11T00:27:04.943Z,0.00
2023-04-11T00:28:04.925Z,0.00
2023-04-11T00:29:04.941Z,0.00
2023-04-11T00:30:05.027Z,0.00
2023-04-11T00:31:04.923Z,0.00
2023-04-11T00:32:05.078Z,0.00
2023-04-11T00:33:04.961Z,0.00
2023-04-11T00:34:04.919Z,0.00
2023-04-11T00:35:04.932Z,0.00
2023-04-11T00:36:04.992Z,0.00
2023-04-11T00:37:04.967Z,0.00
2023-04-11T00:38:04.930Z,0.00
2023-04-11T00:39:04.929Z,0.00
2023-04-11T00:40:04.910Z,0.00
2023-04-11T00:41:04.913Z,0.00
2023-04-11T00:42:04.909Z,0.00
2023-04-11T00:43:04.915Z,0.00
2023-04-11T00:44:04.906Z,0.00
2023-04-11T00:45:04.904Z,0.00
2023-04-11T00:46:04.944Z,0.00
2023-04-11T00:47:04.910Z,0.00
2023-04-11T00:48:04.965Z,0.00
2023-04-11T00:49:04.914Z,0.00
2023-04-11T00:50:04.896Z,0.00
2023-04-11T00:51:04.897Z,0.00
2023-04-11T00:52:04.890Z,0.00
2023-04-11T00:53:04.888Z,0.00
2023-04-11T00:54:04.891Z,0.00
2023-04-11T00:55:04.895Z,0.00
2023-04-11T00:56:04.893Z,0.00
2023-04-11T00:57:04.885Z,0.00
2023-04-11T00:58:04.882Z,0.00
2023-04-11T00:59:04.882Z,0.00
2023-04-11T01:00:04.878Z,0.00
2023-04-11T01:01:04.898Z,0.00
2023-04-11T01:02:04.938Z,0.00
2023-04-11T01:03:05.080Z,0.00
2023-04-11T01:04:05.041Z,0.00
2023-04-11T01:05:04.877Z,0.00
2023-04-11T01:06:04.913Z,0.00
2023-04-11T01:07:04.880Z,0.00
2023-04-11T01:08:04.876Z,0.00
2023-04-11T01:09:04.942Z,0.00
2023-04-11T01:10:04.870Z,0.00
2023-04-11T01:11:04.878Z,0.00
2023-04-11T01:12:04.914Z,0.00
2023-04-11T01:13:04.876Z,0.00
2023-04-11T01:14:04.869Z,0.00
2023-04-11T01:15:04.870Z,0.00
2023-04-11T01:16:04.868Z,0.00
2023-04-11T01:17:05.104Z,0.00
2023-04-11T01:18:04.909Z,0.00
2023-04-11T01:19:04.871Z,0.00
2023-04-11T01:20:04.888Z,0.00
2023-04-11T01:21:04.862Z,0.00
2023-04-11T01:22:04.891Z,0.00
2023-04-11T01:23:04.864Z,0.00
2023-04-11T01:24:04.867Z,0.00
2023-04-11T01:25:04.911Z,0.00
2023-04-11T01:26:04.853Z,0.00
2023-04-11T01:27:04.872Z,0.00
2023-04-11T01:28:04.851Z,0.00
2023-04-11T01:29:04.860Z,0.00
2023-04-11T01:30:04.936Z,0.00
2023-04-11T01:31:04.871Z,0.00
2023-04-11T01:32:04.850Z,0.00
2023-04-11T01:33:04.883Z,0.00
2023-04-11T01:34:04.852Z,0.00
2023-04-11T01:35:04.844Z,0.00
2023-04-11T01:36:04.933Z,0.00
2023-04-11T01:37:04.850Z,0.00
2023-04-11T01:38:04.843Z,0.00
2023-04-11T01:39:04.837Z,0.00
2023-04-11T01:40:04.838Z,0.00
2023-04-11T01:41:04.833Z,0.00
2023-04-11T01:42:04.831Z,0.00
2023-04-11T01:43:04.839Z,0.00
2023-04-11T01:44:04.838Z,0.00
2023-04-11T01:45:04.823Z,0.00
2023-04-11T01:46:04.834Z,0.00
2023-04-11T01:47:04.830Z,0.00
2023-04-11T01:48:04.929Z,0.00
2023-04-11T01:49:04.857Z,0.00
2023-04-11T01:50:04.867Z,0.00
2023-04-11T01:51:04.820Z,0.00
2023-04-11T01:52:04.845Z,0.00
2023-04-11T01:53:04.818Z,0.00
2023-04-11T01:54:04.820Z,0.00
2023-04-11T01:55:04.836Z,0.00
2023-04-11T01:56:04.839Z,0.00
2023-04-11T01:57:04.810Z,0.00
2023-04-11T01:58:04.824Z,0.00
2023-04-11T01:59:04.805Z,0.00
2023-04-11T02:00:04.813Z,0.00
2023-04-11T02:01:04.828Z,0.00
2023-04-11T02:02:04.982Z,0.00
2023-04-11T02:03:04.908Z,0.00
2023-04-11T02:04:04.914Z,0.00
2023-04-11T02:05:04.805Z,0.00
2023-04-11T02:06:04.797Z,0.00
2023-04-11T02:07:04.793Z,0.00
2023-04-11T02:08:04.828Z,0.00
2023-04-11T02:09:04.790Z,0.00
2023-04-11T02:10:04.796Z,0.00
2023-04-11T02:11:04.789Z,0.00
2023-04-11T02:12:04.796Z,0.00
2023-04-11T02:13:04.785Z,0.00
2023-04-11T02:14:04.793Z,0.00
2023-04-11T02:15:04.778Z,0.00
2023-04-11T02:16:04.845Z,0.00
2023-04-11T02:17:04.784Z,0.00
2023-04-11T02:18:04.847Z,0.00
2023-04-11T02:19:04.776Z,0.00
2023-04-11T02:20:04.779Z,0.00
2023-04-11T02:21:04.782Z,0.00
2023-04-11T02:22:04.779Z,0.00
2023-04-11T02:23:04.779Z,0.00
2023-04-11T02:24:04.806Z,0.00
2023-04-11T02:25:04.766Z,0.00
2023-04-11T02:26:04.773Z,0.00
2023-04-11T02:27:04.768Z,0.00
2023-04-11T02:28:07.376Z,0.00
2023-04-11T02:29:04.774Z,0.00
2023-04-11T02:30:04.762Z,0.00
2023-04-11T02:31:04.838Z,0.00
2023-04-11T02:32:05.082Z,0.00
2023-04-11T02:33:04.800Z,0.00
2023-04-11T02:34:04.760Z,0.00
2023-04-11T02:35:04.769Z,0.00
2023-04-11T02:36:04.810Z,0.00
2023-04-11T02:37:04.760Z,0.00
2023-04-11T02:38:04.764Z,0.00
2023-04-11T02:39:04.751Z,0.00
2023-04-11T02:40:04.777Z,0.00
2023-04-11T02:41:04.744Z,0.00
2023-04-11T02:42:04.758Z,0.00
2023-04-11T02:43:04.755Z,0.00
2023-04-11T02:44:04.743Z,0.00
2023-04-11T02:45:04.756Z,0.00
2023-04-11T02:46:12.563Z,0.00
2023-04-11T02:47:04.794Z,0.00
2023-04-11T02:48:04.807Z,0.00
2023-04-11T02:49:04.742Z,0.00
2023-04-11T02:50:04.734Z,0.00
2023-04-11T02:51:04.736Z,0.00
2023-04-11T02:52:04.748Z,0.00
2023-04-11T02:53:04.734Z,0.00
2023-04-11T02:54:04.734Z,0.00
2023-04-11T02:55:04.728Z,0.00
2023-04-11T02:56:04.825Z,0.00
2023-04-11T02:57:04.726Z,0.00
2023-04-11T02:58:04.729Z,0.00
2023-04-11T02:59:04.724Z,0.00
2023-04-11T03:00:04.719Z,0.00
2023-04-11T03:01:04.721Z,0.00
2023-04-11T03:02:04.814Z,0.00
2023-04-11T03:03:04.818Z,0.00
2023-04-11T03:04:04.870Z,0.00
2023-04-11T03:05:04.709Z,0.00
2023-04-11T03:06:04.714Z,0.00
2023-04-11T03:07:04.711Z,0.00
2023-04-11T03:08:04.757Z,0.00
2023-04-11T03:09:04.705Z,0.00
2023-04-11T03:10:04.703Z,0.00
2023-04-11T03:11:04.706Z,0.00
2023-04-11T03:12:04.733Z,0.00
2023-04-11T03:13:04.712Z,0.00
2023-04-11T03:14:04.746Z,0.00
2023-04-11T03:15:04.714Z,0.00
2023-04-11T03:16:04.729Z,0.00
2023-04-11T03:17:04.707Z,0.00
2023-04-11T03:18:04.774Z,0.00
2023-04-11T03:19:04.695Z,0.00
2023-04-11T03:20:04.696Z,0.00
2023-04-11T03:21:04.691Z,0.00
2023-04-11T03:22:04.691Z,0.00
2023-04-11T03:23:04.687Z,0.00
2023-04-11T03:24:04.686Z,0.00
2023-04-11T03:25:04.685Z,0.00
2023-04-11T03:26:04.694Z,0.00
2023-04-11T03:27:04.684Z,0.00
2023-04-11T03:28:04.725Z,0.00
2023-04-11T03:29:04.681Z,0.00
2023-04-11T03:30:04.687Z,0.00
2023-04-11T03:31:04.687Z,0.00
2023-04-11T03:32:04.679Z,0.00
2023-04-11T03:33:04.709Z,0.00
2023-04-11T03:34:04.687Z,0.00
2023-04-11T03:35:04.679Z,0.00
2023-04-11T03:36:04.725Z,0.00
2023-04-11T03:37:04.669Z,0.00
2023-04-11T03:38:04.677Z,0.00
2023-04-11T03:39:04.666Z,0.00
2023-04-11T03:40:04.680Z,0.00
2023-04-11T03:41:04.660Z,0.00
2023-04-11T03:42:04.667Z,0.00
2023-04-11T03:43:05.076Z,0.00
2023-04-11T03:44:04.695Z,0.00
2023-04-11T03:45:41.065Z,0.00
2023-04-11T03:46:41.113Z,0.00
2023-04-11T03:47:41.127Z,0.00
2023-04-11T03:48:41.081Z,0.00
2023-04-11T03:49:41.084Z,0.00
2023-04-11T03:50:41.044Z,0.00
2023-04-11T03:51:41.089Z,0.00
2023-04-11T03:52:41.044Z,4.00
2023-04-11T03:53:41.056Z,4.00
2023-04-11T03:54:41.073Z,0.00
2023-04-11T03:55:41.060Z,0.00
2023-04-11T03:56:41.041Z,0.00
2023-04-11T03:57:41.070Z,0.00
2023-04-11T03:58:41.040Z,4.00
2023-04-11T03:59:41.073Z,4.00
2023-04-11T04:00:41.047Z,0.00
2023-04-11T04:01:41.146Z,4.00
2023-04-11T04:02:41.212Z,4.00
2023-04-11T04:03:41.263Z,4.00
2023-04-11T04:04:41.266Z,4.00
2023-04-11T04:05:41.022Z,8.00
2023-04-11T04:06:41.026Z,8.00
2023-04-11T04:07:41.034Z,8.00
2023-04-11T04:08:41.015Z,8.00
2023-04-11T04:09:41.015Z,12.00
2023-04-11T04:10:41.011Z,16.00
2023-04-11T04:11:41.013Z,16.00
2023-04-11T04:12:41.012Z,20.00
2023-04-11T04:13:41.005Z,20.00
2023-04-11T04:14:41.005Z,20.00
2023-04-11T04:15:41.028Z,20.00
2023-04-11T04:16:41.086Z,20.00
2023-04-11T04:17:41.088Z,24.00
2023-04-11T04:18:40.995Z,24.00
2023-04-11T04:19:41.000Z,24.00
2023-04-11T04:20:41.029Z,28.00
2023-04-11T04:21:41.001Z,32.00
2023-04-11T04:22:40.995Z,28.00
2023-04-11T04:23:40.992Z,32.00
2023-04-11T04:24:41.100Z,32.00
2023-04-11T04:25:40.995Z,28.00
2023-04-11T04:26:40.993Z,32.00
2023-04-11T04:27:40.985Z,32.00
2023-04-11T04:28:40.979Z,32.00
2023-04-11T04:29:40.982Z,32.00
2023-04-11T04:30:40.984Z,32.00
2023-04-11T04:31:41.040Z,36.00
2023-04-11T04:32:41.033Z,36.00
2023-04-11T04:33:40.978Z,36.00
2023-04-11T04:34:40.977Z,44.00
2023-04-11T04:35:40.992Z,40.00
2023-04-11T04:36:40.995Z,44.00
2023-04-11T04:37:40.976Z,40.00
2023-04-11T04:38:40.963Z,48.00
2023-04-11T04:39:40.968Z,48.00
2023-04-11T04:40:40.960Z,48.00
2023-04-11T04:41:40.965Z,56.00
2023-04-11T04:42:40.958Z,60.00
2023-04-11T04:43:40.963Z,64.00
2023-04-11T04:44:40.965Z,68.00
2023-04-11T04:45:41.006Z,68.00
2023-04-11T04:46:40.968Z,80.00
2023-04-11T04:47:41.000Z,84.00
2023-04-11T04:48:40.955Z,84.00
2023-04-11T04:49:40.957Z,92.00
2023-04-11T04:50:40.950Z,100.00
2023-04-11T04:51:40.951Z,96.00
2023-04-11T04:52:40.951Z,104.00
2023-04-11T04:53:40.946Z,116.00
2023-04-11T04:54:40.943Z,112.00
2023-04-11T04:55:40.942Z,116.00
2023-04-11T04:56:40.941Z,124.00
2023-04-11T04:57:40.947Z,144.00
2023-04-11T04:58:40.934Z,144.00
2023-04-11T04:59:40.937Z,140.00
2023-04-11T05:00:40.936Z,156.00
2023-04-11T05:01:41.032Z,156.00
2023-04-11T05:02:41.104Z,152.00
2023-04-11T05:03:40.996Z,168.00
2023-04-11T05:04:40.931Z,180.00
2023-04-11T05:05:40.926Z,196.00
2023-04-11T05:06:40.921Z,204.00
2023-04-11T05:07:40.932Z,200.00
2023-04-11T05:08:40.939Z,200.00
2023-04-11T05:09:40.917Z,192.00
2023-04-11T05:10:40.916Z,184.00
2023-04-11T05:11:40.916Z,168.00
2023-04-11T05:12:40.912Z,156.00
2023-04-11T05:13:40.912Z,132.00
2023-04-11T05:14:40.903Z,136.00
2023-04-11T05:15:40.907Z,152.00
2023-04-11T05:16:40.940Z,116.00
2023-04-11T05:17:40.936Z,96.00
2023-04-11T05:18:40.895Z,108.00
2023-04-11T05:19:40.916Z,124.00
2023-04-11T05:20:40.892Z,104.00
2023-04-11T05:21:40.897Z,96.00
2023-04-11T05:22:40.897Z,132.00
2023-04-11T05:23:40.895Z,132.00
2023-04-11T05:24:40.882Z,148.00
2023-04-11T05:25:40.897Z,144.00
2023-04-11T05:26:40.878Z,164.00
2023-04-11T05:27:40.889Z,160.00
2023-04-11T05:28:40.881Z,168.00
2023-04-11T05:29:40.892Z,140.00
2023-04-11T05:30:40.895Z,124.00
2023-04-11T05:31:40.875Z,144.00
2023-04-11T05:32:40.885Z,144.00
2023-04-11T05:33:40.870Z,168.00
2023-04-11T05:34:40.876Z,228.00
2023-04-11T05:35:41.100Z,216.00
2023-04-11T05:36:40.865Z,204.00
2023-04-11T05:37:40.860Z,200.00
2023-04-11T05:38:40.853Z,204.00
2023-04-11T05:39:40.861Z,196.00
2023-04-11T05:40:40.851Z,192.00
2023-04-11T05:41:40.855Z,184.00
2023-04-11T05:42:40.856Z,188.00
2023-04-11T05:43:40.850Z,208.00
2023-04-11T05:44:40.845Z,244.00
2023-04-11T05:45:40.875Z,288.00
2023-04-11T05:46:40.883Z,320.00
2023-04-11T05:47:40.869Z,328.00
2023-04-11T05:48:40.841Z,332.00
2023-04-11T05:49:40.836Z,352.00
2023-04-11T05:50:40.831Z,412.00
2023-04-11T05:51:40.859Z,440.00
2023-04-11T05:52:40.837Z,416.00
2023-04-11T05:53:40.827Z,424.00
2023-04-11T05:54:40.825Z,432.00
2023-04-11T05:55:40.833Z,492.00
2023-04-11T05:56:40.835Z,516.00
2023-04-11T05:57:40.820Z,460.00
2023-04-11T05:58:40.815Z,476.00
2023-04-11T05:59:40.832Z,520.00
2023-04-11T06:00:40.809Z,508.00
2023-04-11T06:01:40.833Z,568.00
2023-04-11T06:02:40.981Z,604.00
2023-04-11T06:03:40.905Z,620.00
2023-04-11T06:04:41.013Z,664.00
2023-04-11T06:05:40.797Z,688.00
2023-04-11T06:06:40.791Z,748.00
2023-04-11T06:07:40.823Z,664.00
2023-04-11T06:08:40.787Z,452.00
2023-04-11T06:09:40.795Z,404.00
2023-04-11T06:10:40.787Z,592.00
2023-04-11T06:11:40.793Z,860.00
2023-04-11T06:12:40.801Z,888.00
2023-04-11T06:13:40.787Z,908.00
2023-04-11T06:14:40.890Z,912.00
2023-04-11T06:15:40.795Z,860.00
2023-04-11T06:16:40.769Z,848.00
2023-04-11T06:17:40.822Z,868.00
2023-04-11T06:18:40.769Z,744.00
2023-04-11T06:19:40.776Z,808.00
2023-04-11T06:20:40.789Z,976.00
2023-04-11T06:21:40.768Z,1112.00
2023-04-11T06:22:40.750Z,1256.00
2023-04-11T06:23:40.797Z,1460.00
2023-04-11T06:24:40.756Z,1656.00
2023-04-11T06:25:40.752Z,1820.00
2023-04-11T06:26:40.753Z,1976.00
2023-04-11T06:27:40.757Z,2092.00
2023-04-11T06:28:40.767Z,2408.00
2023-04-11T06:29:40.745Z,2576.00
2023-04-11T06:30:40.737Z,2728.00
2023-04-11T06:31:40.759Z,2892.00
2023-04-11T06:32:40.784Z,3228.00
2023-04-11T06:33:40.744Z,3804.00
2023-04-11T06:34:40.732Z,4200.00
2023-04-11T06:35:40.814Z,4136.00
2023-04-11T06:36:40.727Z,3824.00
2023-04-11T06:37:40.732Z,3472.00
2023-04-11T06:38:40.724Z,3268.00
2023-04-11T06:39:40.747Z,3372.00
2023-04-11T06:40:40.720Z,3624.00
2023-04-11T06:41:40.720Z,3652.00
2023-04-11T06:42:40.719Z,3712.00
2023-04-11T06:43:40.721Z,3916.00
2023-04-11T06:44:40.742Z,4112.00
2023-04-11T06:45:40.712Z,3904.00
2023-04-11T06:46:40.727Z,3380.00
2023-04-11T06:47:40.775Z,2816.00
2023-04-11T06:48:40.706Z,3580.00
2023-04-11T06:49:40.704Z,3140.00
2023-04-11T06:50:40.707Z,2744.00
2023-04-11T06:51:40.700Z,2576.00
2023-04-11T06:52:40.697Z,2452.00
2023-04-11T06:53:40.698Z,2300.00
2023-04-11T06:54:40.716Z,2084.00
2023-04-11T06:55:40.814Z,1828.00
2023-04-11T06:56:40.689Z,1604.00
2023-04-11T06:57:40.692Z,1492.00
2023-04-11T06:58:40.683Z,1488.00
2023-04-11T06:59:40.711Z,1464.00
2023-04-11T07:00:40.682Z,1364.00
2023-04-11T07:01:40.776Z,1272.00
2023-04-11T07:02:40.919Z,1244.00
2023-04-11T07:03:40.888Z,1276.00
2023-04-11T07:04:40.777Z,1344.00
2023-04-11T07:05:40.684Z,1428.00
2023-04-11T07:06:40.671Z,1616.00
2023-04-11T07:07:40.673Z,1904.00
2023-04-11T07:08:40.664Z,2240.00
2023-04-11T07:09:40.685Z,2456.00
2023-04-11T07:10:40.669Z,2528.00
2023-04-11T07:11:40.688Z,2500.00
2023-04-11T07:12:40.659Z,2504.00
2023-04-11T07:13:40.657Z,2344.00
2023-04-11T07:14:40.650Z,2060.00
2023-04-11T07:15:40.656Z,1988.00
2023-04-11T07:16:40.682Z,2216.00
2023-04-11T07:17:40.658Z,2564.00
2023-04-11T07:18:40.640Z,3168.00
2023-04-11T07:19:40.669Z,3532.00
2023-04-11T07:20:40.646Z,3624.00
2023-04-11T07:21:40.641Z,3696.00
2023-04-11T07:22:40.640Z,3624.00
2023-04-11T07:23:40.639Z,3352.00
2023-04-11T07:24:40.632Z,3108.00
2023-04-11T07:25:40.635Z,2936.00
2023-04-11T07:26:40.628Z,2616.00
2023-04-11T07:27:40.805Z,2464.00
2023-04-11T07:28:40.631Z,2428.00
2023-04-11T07:29:40.625Z,2448.00
2023-04-11T07:30:40.621Z,2696.00
2023-04-11T07:31:40.758Z,2632.00
2023-04-11T07:32:40.678Z,2840.00
2023-04-11T07:33:40.650Z,3128.00
2023-04-11T07:34:40.629Z,3308.00
2023-04-11T07:35:40.621Z,2884.00
2023-04-11T07:36:40.609Z,2656.00
2023-04-11T07:37:40.613Z,2840.00
2023-04-11T07:38:40.603Z,2980.00
2023-04-11T07:39:40.622Z,3336.00
2023-04-11T07:40:40.600Z,3776.00
2023-04-11T07:41:40.601Z,3564.00
2023-04-11T07:42:40.602Z,3680.00
2023-04-11T07:43:40.634Z,3492.00
2023-04-11T07:44:40.613Z,2808.00
2023-04-11T07:45:40.719Z,2548.00
2023-04-11T07:46:40.586Z,2640.00
2023-04-11T07:47:40.602Z,2672.00
2023-04-11T07:48:40.585Z,2640.00
2023-04-11T07:49:40.578Z,2680.00
2023-04-11T07:50:40.583Z,3020.00
2023-04-11T07:51:40.585Z,3044.00
2023-04-11T07:52:40.574Z,3280.00
2023-04-11T07:53:40.586Z,3288.00
2023-04-11T07:54:40.577Z,3184.00
2023-04-11T07:55:40.575Z,3152.00
2023-04-11T07:56:40.578Z,3092.00
2023-04-11T07:57:40.571Z,2976.00
2023-04-11T07:58:40.562Z,2988.00
2023-04-11T07:59:40.603Z,2968.00
2023-04-11T08:00:40.571Z,2808.00
2023-04-11T08:01:40.586Z,2884.00
2023-04-11T08:02:40.690Z,3056.00
2023-04-11T08:03:40.694Z,3068.00
2023-04-11T08:04:40.709Z,3308.00
2023-04-11T08:05:40.565Z,3348.00
2023-04-11T08:06:40.571Z,3392.00
2023-04-11T08:07:40.554Z,3324.00
2023-04-11T08:08:40.606Z,2896.00
2023-04-11T08:09:40.565Z,2608.00
2023-04-11T08:10:40.544Z,3328.00
2023-04-11T08:11:40.555Z,4108.00
2023-04-11T08:12:40.551Z,3820.00
2023-04-11T08:13:40.543Z,3388.00
2023-04-11T08:14:40.541Z,2400.00
2023-04-11T08:15:40.572Z,2480.00
2023-04-11T08:16:40.567Z,2412.00
2023-04-11T08:17:40.680Z,1932.00
2023-04-11T08:18:40.538Z,2460.00
2023-04-11T08:19:40.528Z,2976.00
2023-04-11T08:20:40.576Z,2624.00
2023-04-11T08:21:40.526Z,1912.00
2023-04-11T08:22:40.535Z,2320.00
2023-04-11T08:23:40.523Z,2568.00
2023-04-11T08:24:40.534Z,1744.00
2023-04-11T08:25:40.524Z,1580.00
2023-04-11T08:26:40.541Z,1876.00
2023-04-11T08:27:40.542Z,2016.00
2023-04-11T08:28:42.703Z,2292.00
2023-04-11T08:29:40.516Z,2480.00
2023-04-11T08:30:40.554Z,2380.00
2023-04-11T08:31:40.532Z,2060.00
2023-04-11T08:32:40.556Z,1776.00
2023-04-11T08:33:40.544Z,1516.00
2023-04-11T08:34:40.533Z,1668.00
2023-04-11T08:35:40.558Z,1424.00
2023-04-11T08:36:40.508Z,1580.00
2023-04-11T08:37:40.556Z,2416.00
2023-04-11T08:38:40.504Z,2640.00
2023-04-11T08:39:40.559Z,1900.00
2023-04-11T08:40:40.520Z,1740.00
2023-04-11T08:41:40.649Z,2424.00
2023-04-11T08:42:40.508Z,2000.00
2023-04-11T08:43:40.487Z,1488.00
2023-04-11T08:44:40.496Z,1688.00
2023-04-11T08:45:40.577Z,1540.00
2023-04-11T08:46:40.506Z,1296.00
2023-04-11T08:47:41.928Z,1040.00
2023-04-11T08:48:40.522Z,860.00
2023-04-11T08:49:40.484Z,676.00
2023-04-11T08:50:40.496Z,584.00
2023-04-11T08:51:40.564Z,816.00
2023-04-11T08:52:40.484Z,960.00
2023-04-11T08:53:40.483Z,996.00
2023-04-11T08:54:40.483Z,944.00
2023-04-11T08:55:40.554Z,1180.00
2023-04-11T08:56:40.488Z,1952.00
2023-04-11T08:57:40.462Z,2520.00
2023-04-11T08:58:42.453Z,2460.00
2023-04-11T08:59:40.560Z,2508.00
2023-04-11T09:00:40.496Z,2788.00
2023-04-11T09:01:40.956Z,2932.00
2023-04-11T09:02:40.565Z,2676.00
2023-04-11T09:03:40.644Z,2860.00
2023-04-11T09:04:40.610Z,3452.00
2023-04-11T09:05:40.497Z,3780.00
2023-04-11T09:06:40.576Z,3688.00
2023-04-11T09:07:40.442Z,3224.00
2023-04-11T09:08:40.516Z,2700.00
2023-04-11T09:09:40.448Z,2324.00
2023-04-11T09:10:40.451Z,2172.00
2023-04-11T09:11:40.442Z,2244.00
2023-04-11T09:12:40.446Z,2260.00
2023-04-11T09:13:40.444Z,2284.00
2023-04-11T09:14:40.520Z,2372.00
2023-04-11T09:15:40.459Z,2476.00
2023-04-11T09:16:40.466Z,2524.00
2023-04-11T09:17:40.486Z,2864.00
2023-04-11T09:18:40.447Z,3284.00
2023-04-11T09:19:40.493Z,4048.00
2023-04-11T09:20:40.435Z,5340.00
2023-04-11T09:21:40.441Z,6324.00
2023-04-11T09:22:42.604Z,6880.00
2023-04-11T09:23:40.419Z,7052.00
2023-04-11T09:24:40.427Z,6928.00
2023-04-11T09:25:40.430Z,6556.00
2023-04-11T09:26:40.415Z,6204.00
2023-04-11T09:27:40.429Z,5948.00
2023-04-11T09:28:40.452Z,5948.00
2023-04-11T09:29:40.416Z,6208.00
2023-04-11T09:30:40.435Z,6576.00
2023-04-11T09:31:40.510Z,7176.00
2023-04-11T09:32:40.446Z,7672.00
2023-04-11T09:33:40.480Z,8128.00
2023-04-11T09:34:42.501Z,8520.00
2023-04-11T09:35:40.482Z,8904.00
2023-04-11T09:36:40.417Z,9428.00
2023-04-11T09:37:40.410Z,8944.00
2023-04-11T09:38:40.406Z,8324.00
2023-04-11T09:39:40.397Z,8576.00
2023-04-11T09:40:40.403Z,9556.00
2023-04-11T09:41:40.427Z,11668.00
2023-04-11T09:42:40.394Z,11700.00
2023-04-11T09:43:40.387Z,13520.00
2023-04-11T09:44:40.401Z,14416.00
2023-04-11T09:45:51.756Z,16352.00
2023-04-11T09:46:40.426Z,14924.00
2023-04-11T09:47:41.401Z,16112.00
2023-04-11T09:48:46.649Z,11436.00
2023-04-11T09:49:40.378Z,10412.00
2023-04-11T09:50:40.397Z,10056.00
2023-04-11T09:51:40.442Z,11036.00
2023-04-11T09:52:40.390Z,11736.00
2023-04-11T09:53:40.556Z,12020.00
2023-04-11T09:54:40.378Z,10588.00
2023-04-11T09:55:40.365Z,11292.00
2023-04-11T09:56:40.372Z,10516.00
2023-04-11T09:57:40.375Z,9872.00
2023-04-11T09:58:40.387Z,9416.00
2023-04-11T09:59:40.381Z,11252.00
2023-04-11T10:00:40.380Z,10932.00
2023-04-11T10:01:40.452Z,12888.00
2023-04-11T10:02:40.530Z,14424.00
2023-04-11T10:03:40.375Z,12452.00
2023-04-11T10:04:40.429Z,14412.00
2023-04-11T10:05:40.358Z,15532.00
2023-04-11T10:06:40.364Z,16700.00
2023-04-11T10:07:40.373Z,16712.00
2023-04-11T10:08:40.365Z,15516.00
2023-04-11T10:09:40.356Z,15152.00
2023-04-11T10:10:40.359Z,14412.00
2023-04-11T10:11:40.364Z,13312.00
2023-04-11T10:12:40.366Z,12492.00
2023-04-11T10:13:40.365Z,12344.00
2023-04-11T10:14:40.354Z,12080.00
2023-04-11T10:15:40.351Z,11196.00
2023-04-11T10:16:40.382Z,11684.00
2023-04-11T10:17:40.371Z,12504.00
2023-04-11T10:18:40.356Z,13380.00
2023-04-11T10:19:40.358Z,14076.00
2023-04-11T10:20:40.372Z,13976.00
2023-04-11T10:21:40.352Z,13068.00
2023-04-11T10:22:40.349Z,13080.00
2023-04-11T10:23:40.359Z,10512.00
2023-04-11T10:24:40.353Z,10608.00
2023-04-11T10:25:40.344Z,10784.00
2023-04-11T10:26:40.352Z,12948.00
2023-04-11T10:27:40.356Z,14588.00
2023-04-11T10:28:40.347Z,15084.00
2023-04-11T10:29:40.346Z,15432.00
2023-04-11T10:30:40.358Z,17088.00
2023-04-11T10:31:40.358Z,16936.00
2023-04-11T10:32:40.370Z,15764.00
2023-04-11T10:33:40.348Z,17632.00
2023-04-11T10:34:40.335Z,17440.00
2023-04-11T10:35:40.354Z,15440.00
2023-04-11T10:36:40.342Z,12832.00
2023-04-11T10:37:40.342Z,13788.00
2023-04-11T10:38:40.342Z,13828.00
2023-04-11T10:39:40.357Z,18016.00
2023-04-11T10:40:40.339Z,18144.00
2023-04-11T10:41:40.336Z,10944.00
2023-04-11T10:42:40.343Z,11192.00
2023-04-11T10:43:40.333Z,14072.00
2023-04-11T10:44:40.336Z,14964.00
2023-04-11T10:45:40.343Z,11952.00
2023-04-11T10:46:40.371Z,18816.00
2023-04-11T10:47:40.344Z,13180.00
2023-04-11T10:48:40.336Z,16092.00
2023-04-11T10:49:40.391Z,10732.00
2023-04-11T10:50:40.338Z,22336.00
2023-04-11T10:51:40.332Z,24960.00
2023-04-11T10:52:40.338Z,21664.00
2023-04-11T10:53:40.333Z,21728.00
2023-04-11T10:54:40.332Z,21536.00
2023-04-11T10:55:40.363Z,18944.00
2023-04-11T10:56:40.347Z,10128.00
2023-04-11T10:57:40.334Z,9792.00
2023-04-11T10:58:40.358Z,21280.00
2023-04-11T10:59:40.333Z,10912.00
2023-04-11T11:00:40.362Z,22048.00
2023-04-11T11:02:40.790Z,10048.00
2023-04-11T11:03:40.510Z,16960.00
2023-04-11T11:04:40.464Z,19008.00
2023-04-11T11:05:40.589Z,17728.00
2023-04-11T11:06:46.656Z,15728.00
2023-04-11T11:07:40.329Z,15120.00
2023-04-11T11:08:40.330Z,14440.00
2023-04-11T11:09:40.342Z,14300.00
2023-04-11T11:10:40.354Z,13452.00
2023-04-11T11:11:40.348Z,14028.00
2023-04-11T11:12:40.326Z,14740.00
2023-04-11T11:13:40.328Z,15036.00
2023-04-11T11:14:40.367Z,14684.00
2023-04-11T11:15:40.321Z,12212.00
2023-04-11T11:16:40.345Z,9336.00
2023-04-11T11:17:40.352Z,7412.00
2023-04-11T11:18:40.329Z,7104.00
2023-04-11T11:19:40.322Z,6908.00
2023-04-11T11:20:40.328Z,6076.00
2023-04-11T11:21:40.325Z,5032.00
2023-04-11T11:22:40.331Z,4248.00
2023-04-11T11:23:40.324Z,3992.00
2023-04-11T11:24:40.327Z,3916.00
2023-04-11T11:25:40.344Z,3668.00
2023-04-11T11:26:40.349Z,3624.00
2023-04-11T11:27:40.344Z,4040.00
2023-04-11T11:28:40.336Z,4364.00
2023-04-11T11:29:40.323Z,4568.00
2023-04-11T11:30:40.328Z,4432.00
2023-04-11T11:31:40.388Z,4636.00
2023-04-11T11:32:40.365Z,5428.00
2023-04-11T11:33:40.331Z,6220.00
2023-04-11T11:34:40.347Z,7328.00
2023-04-11T11:35:40.335Z,7772.00
2023-04-11T11:36:40.332Z,8920.00
2023-04-11T11:37:40.324Z,11148.00
2023-04-11T11:38:40.322Z,16640.00
2023-04-11T11:39:40.349Z,21568.00
2023-04-11T11:40:40.325Z,21632.00
2023-04-11T11:41:40.329Z,18976.00
2023-04-11T11:42:40.337Z,19744.00
2023-04-11T11:43:40.339Z,19104.00
2023-04-11T11:44:40.325Z,19776.00
2023-04-11T11:45:40.325Z,18688.00
2023-04-11T11:46:40.553Z,18048.00
2023-04-11T11:47:40.375Z,17344.00
2023-04-11T11:48:40.322Z,16672.00
2023-04-11T11:49:40.322Z,15780.00
2023-04-11T11:50:40.328Z,17472.00
2023-04-11T11:51:40.317Z,17728.00
2023-04-11T11:52:40.324Z,16736.00
2023-04-11T11:53:40.329Z,17344.00
2023-04-11T11:54:40.327Z,18464.00
2023-04-11T11:55:40.322Z,16604.00
2023-04-11T11:56:40.331Z,10828.00
2023-04-11T11:57:40.343Z,12600.00
2023-04-11T11:58:40.321Z,15492.00
2023-04-11T11:59:40.349Z,18752.00
2023-04-11T12:00:40.334Z,22368.00
2023-04-11T12:01:40.374Z,23648.00
2023-04-11T12:02:40.504Z,22592.00
2023-04-11T12:03:40.496Z,23360.00
2023-04-11T12:04:40.606Z,24896.00
2023-04-11T12:05:40.328Z,22784.00
2023-04-11T12:06:40.326Z,21376.00
2023-04-11T12:07:40.325Z,19392.00
2023-04-11T12:08:40.324Z,17056.00
2023-04-11T12:09:40.319Z,17248.00
2023-04-11T12:10:40.336Z,16116.00
2023-04-11T12:11:40.327Z,17216.00
2023-04-11T12:12:40.337Z,17504.00
2023-04-11T12:13:40.320Z,15040.00
2023-04-11T12:14:40.325Z,17248.00
2023-04-11T12:15:40.364Z,18112.00
2023-04-11T12:16:40.335Z,10016.00
2023-04-11T12:17:40.462Z,12048.00
2023-04-11T12:18:40.324Z,15616.00
2023-04-11T12:19:40.333Z,19104.00
2023-04-11T12:20:40.324Z,17184.00
2023-04-11T12:21:40.349Z,17056.00
2023-04-11T12:22:40.328Z,17184.00
2023-04-11T12:23:40.328Z,6008.00
2023-04-11T12:24:40.324Z,19936.00
2023-04-11T12:25:40.347Z,10208.00
2023-04-11T12:26:57.679Z,22304.00
2023-04-11T12:27:40.330Z,24480.00
2023-04-11T12:28:40.332Z,24192.00
2023-04-11T12:29:40.332Z,22368.00
2023-04-11T12:30:40.346Z,20832.00